createdAt,value
2019-02-15T00:03:33.413Z,72.00
2019-02-15T00:08:36.118Z,71.99
2019-02-15T00:13:38.827Z,72.39
2019-02-15T00:18:59.574Z,72.57
2019-02-15T00:24:02.358Z,72.58
2019-02-15T00:29:05.054Z,72.55
2019-02-15T00:34:08.187Z,72.68
2019-02-15T00:39:11.042Z,72.85
2019-02-15T00:44:13.726Z,72.89
2019-02-15T00:49:36.888Z,72.83
2019-02-15T00:54:47.431Z,72.69
2019-02-15T01:00:12.630Z,72.97
2019-02-15T01:05:33.459Z,72.98
2019-02-15T01:10:42.253Z,73.04
2019-02-15T01:15:45.010Z,73.09
2019-02-15T01:20:47.689Z,73.20
2019-02-15T01:25:59.016Z,73.15
2019-02-15T01:31:24.292Z,73.19
2019-02-15T01:36:46.625Z,73.31
2019-02-15T01:42:06.539Z,73.59
2019-02-15T01:47:13.534Z,73.87
2019-02-15T01:52:16.227Z,73.75
2019-02-15T01:57:18.922Z,73.83
2019-02-15T02:02:23.509Z,73.86
2019-02-15T02:07:26.402Z,73.71
2019-02-15T02:12:29.068Z,73.94
2019-02-15T02:17:31.747Z,73.81
2019-02-15T02:22:34.423Z,73.99
2019-02-15T02:27:37.103Z,73.92
2019-02-15T02:32:39.807Z,74.05
2019-02-15T02:37:42.467Z,74.03
2019-02-15T02:42:45.150Z,73.75
2019-02-15T02:47:47.831Z,73.87
2019-02-15T02:52:50.522Z,74.12
2019-02-15T02:57:53.194Z,74.16
2019-02-15T03:02:55.871Z,74.08
2019-02-15T03:07:58.550Z,73.99
2019-02-15T03:13:01.226Z,74.11
2019-02-15T03:18:03.906Z,74.16
2019-02-15T03:23:06.594Z,74.18
2019-02-15T03:28:09.265Z,74.05
2019-02-15T03:33:11.955Z,74.20
2019-02-15T03:38:30.840Z,74.04
2019-02-15T03:43:33.516Z,73.87
2019-02-15T03:48:36.214Z,74.18
2019-02-15T03:53:38.878Z,74.34
2019-02-15T03:58:41.549Z,74.11
2019-02-15T04:03:44.243Z,74.30
2019-02-15T04:08:47.011Z,74.39
2019-02-15T04:13:49.705Z,73.95
2019-02-15T04:18:52.375Z,74.45
2019-02-15T04:23:55.221Z,74.93
2019-02-15T04:28:57.990Z,75.01
2019-02-15T04:34:00.845Z,75.07
2019-02-15T04:39:04.431Z,74.82
2019-02-15T04:44:07.095Z,74.77
2019-02-15T04:49:09.887Z,74.84
2019-02-15T04:54:12.563Z,74.51
2019-02-15T04:59:15.257Z,74.67
2019-02-15T05:04:17.933Z,74.58
2019-02-15T05:09:20.618Z,74.92
2019-02-15T05:14:23.311Z,74.83
2019-02-15T05:19:25.994Z,74.90
2019-02-15T05:24:28.727Z,75.11
2019-02-15T05:29:31.433Z,75.04
2019-02-15T05:34:34.158Z,75.17
2019-02-15T05:39:36.889Z,75.15
2019-02-15T05:44:39.570Z,75.06
2019-02-15T05:49:42.248Z,75.09
2019-02-15T05:54:45.017Z,75.26
2019-02-15T05:59:47.710Z,75.38
2019-02-15T06:04:50.421Z,75.26
2019-02-15T06:09:53.149Z,75.32
2019-02-15T06:14:56.214Z,75.14
2019-02-15T06:19:58.893Z,75.35
2019-02-15T06:25:01.584Z,75.04
2019-02-15T06:30:04.561Z,75.40
2019-02-15T06:35:07.281Z,75.73
2019-02-15T06:40:09.959Z,75.65
2019-02-15T06:45:12.657Z,75.40
2019-02-15T06:50:15.320Z,75.42
2019-02-15T06:55:17.991Z,75.50
2019-02-15T07:00:38.724Z,75.30
2019-02-15T07:05:41.418Z,75.30
2019-02-15T07:10:44.078Z,75.39
2019-02-15T07:15:46.791Z,75.24
2019-02-15T07:20:49.473Z,75.19
2019-02-15T07:25:52.147Z,75.17
2019-02-15T07:30:54.822Z,74.94
2019-02-15T07:35:57.523Z,74.89
2019-02-15T07:41:00.270Z,74.88
2019-02-15T07:46:02.937Z,74.75
2019-02-15T07:51:09.720Z,74.71
2019-02-15T07:56:10.188Z,74.45
2019-02-15T08:01:12.877Z,74.01
2019-02-15T08:06:15.569Z,74.00
2019-02-15T08:11:18.245Z,74.09
2019-02-15T08:16:20.933Z,74.29
2019-02-15T08:21:23.606Z,74.40
2019-02-15T08:26:26.417Z,74.25
2019-02-15T08:31:29.130Z,74.07
2019-02-15T08:36:31.814Z,73.68
2019-02-15T08:41:34.519Z,73.14
2019-02-15T08:46:37.243Z,72.35
2019-02-15T08:51:39.924Z,71.59
2019-02-15T08:56:42.611Z,70.73
2019-02-15T09:02:00.049Z,69.66
2019-02-15T09:07:02.842Z,68.96
2019-02-15T09:12:05.540Z,68.15
2019-02-15T09:17:08.223Z,67.69
2019-02-15T09:22:10.901Z,67.62
2019-02-15T09:27:33.888Z,67.65
2019-02-15T09:32:36.571Z,67.77
2019-02-15T09:37:39.247Z,67.76
2019-02-15T09:42:41.936Z,67.27
2019-02-15T09:47:44.635Z,65.07
2019-02-15T09:52:47.338Z,64.17
2019-02-15T09:57:50.029Z,63.40
2019-02-15T10:02:52.711Z,62.77
2019-02-15T10:07:55.376Z,61.05
2019-02-15T10:12:58.054Z,59.70
2019-02-15T10:18:00.746Z,57.80
2019-02-15T10:23:03.428Z,56.72
2019-02-15T10:28:06.092Z,56.99
2019-02-15T10:33:08.751Z,58.08
2019-02-15T10:38:11.429Z,58.09
2019-02-15T10:43:14.116Z,57.84
2019-02-15T10:48:16.779Z,57.68
2019-02-15T10:53:19.447Z,57.48
2019-02-15T10:58:22.114Z,57.27
2019-02-15T11:03:24.784Z,57.36
2019-02-15T11:08:27.471Z,57.48
2019-02-15T11:13:30.264Z,57.97
2019-02-15T11:18:32.961Z,56.98
2019-02-15T11:23:35.641Z,56.44
2019-02-15T11:28:38.340Z,53.70
2019-02-15T11:33:41.032Z,52.34
2019-02-15T11:38:43.716Z,51.84
2019-02-15T11:43:46.479Z,52.07
2019-02-15T11:48:49.182Z,50.97
2019-02-15T11:53:51.896Z,51.03
2019-02-15T11:58:54.573Z,50.20
2019-02-15T12:03:57.252Z,49.44
2019-02-15T12:08:59.910Z,48.99
2019-02-15T12:14:02.606Z,48.94
2019-02-15T12:19:05.454Z,48.75
2019-02-15T12:24:08.138Z,48.56
2019-02-15T12:29:10.817Z,47.90
2019-02-15T12:34:13.487Z,47.55
2019-02-15T12:39:16.162Z,47.92
2019-02-15T12:44:18.835Z,46.40
2019-02-15T12:49:21.888Z,46.71
2019-02-15T12:54:24.727Z,45.52
2019-02-15T12:59:27.436Z,45.19
2019-02-15T13:04:30.158Z,44.71
2019-02-15T13:09:32.861Z,43.08
2019-02-15T13:14:35.664Z,42.69
2019-02-15T13:19:38.400Z,42.69
2019-02-15T13:24:43.182Z,42.64
2019-02-15T13:29:46.124Z,42.60
2019-02-15T13:34:48.841Z,43.23
2019-02-15T13:39:51.543Z,43.11
2019-02-15T13:44:54.233Z,43.61
2019-02-15T13:49:56.918Z,44.03
2019-02-15T13:54:59.594Z,45.40
2019-02-15T14:00:02.440Z,45.47
2019-02-15T14:05:05.220Z,45.33
2019-02-15T14:10:09.362Z,44.84
2019-02-15T14:15:12.376Z,44.96
2019-02-15T14:20:15.071Z,44.25
2019-02-15T14:25:17.753Z,43.82
2019-02-15T14:30:20.426Z,44.81
2019-02-15T14:35:23.150Z,45.27
2019-02-15T14:40:25.864Z,45.79
2019-02-15T14:45:28.555Z,47.00
2019-02-15T14:50:31.252Z,47.30
2019-02-15T14:55:33.961Z,48.03
2019-02-15T15:00:36.734Z,47.58
2019-02-15T15:05:39.492Z,46.26
2019-02-15T15:10:42.161Z,47.14
2019-02-15T15:15:44.892Z,47.32
2019-02-15T15:20:47.568Z,47.35
2019-02-15T15:25:50.238Z,48.10
2019-02-15T15:30:52.928Z,48.28
2019-02-15T15:35:55.598Z,47.65
2019-02-15T15:40:58.272Z,47.67
2019-02-15T15:46:00.949Z,47.64
2019-02-15T15:51:03.633Z,47.59
2019-02-15T15:56:06.347Z,47.79
2019-02-15T16:01:09.027Z,47.78
2019-02-15T16:06:11.706Z,48.23
2019-02-15T16:11:14.421Z,49.55
2019-02-15T16:16:17.120Z,51.58
2019-02-15T16:21:21.937Z,51.38
2019-02-15T16:26:24.375Z,51.79
2019-02-15T16:31:27.046Z,53.08
2019-02-15T16:36:29.752Z,54.67
2019-02-15T16:41:34.377Z,55.61
2019-02-15T16:46:37.070Z,55.72
2019-02-15T16:51:39.770Z,56.78
2019-02-15T16:56:42.496Z,57.84
2019-02-15T17:01:46.227Z,58.05
2019-02-15T17:06:48.922Z,57.51
2019-02-15T17:11:51.676Z,55.93
2019-02-15T17:16:54.354Z,54.37
2019-02-15T17:21:57.063Z,53.22
2019-02-15T17:26:59.763Z,52.19
2019-02-15T17:32:02.472Z,51.49
2019-02-15T17:37:06.555Z,51.36
2019-02-15T17:42:09.485Z,51.95
2019-02-15T17:47:12.187Z,51.92
2019-02-15T17:52:14.908Z,51.85
2019-02-15T17:57:17.622Z,51.85
2019-02-15T18:02:20.329Z,52.29
2019-02-15T18:07:23.005Z,52.56
2019-02-15T18:12:25.713Z,52.75
2019-02-15T18:17:28.463Z,53.59
2019-02-15T18:22:31.984Z,53.67
2019-02-15T18:27:34.664Z,54.26
2019-02-15T18:32:37.457Z,55.54
2019-02-15T18:37:40.124Z,56.97
2019-02-15T18:42:42.792Z,57.73
2019-02-15T18:47:45.469Z,58.16
2019-02-15T18:52:48.144Z,57.67
2019-02-15T18:57:50.829Z,56.55
2019-02-15T19:02:53.518Z,55.57
2019-02-15T19:07:57.274Z,54.78
2019-02-15T19:13:00.105Z,54.15
2019-02-15T19:18:02.846Z,53.52
2019-02-15T19:23:05.531Z,53.68
2019-02-15T19:28:08.215Z,53.78
2019-02-15T19:33:10.909Z,53.29
2019-02-15T19:38:13.714Z,52.03
2019-02-15T19:43:16.392Z,50.96
2019-02-15T19:48:19.070Z,50.55
2019-02-15T19:53:21.743Z,50.36
2019-02-15T19:58:24.417Z,50.16
2019-02-15T20:03:27.097Z,50.33
2019-02-15T20:08:29.814Z,50.36
2019-02-15T20:13:32.548Z,50.43
2019-02-15T20:18:35.326Z,50.30
2019-02-15T20:23:38.015Z,50.59
2019-02-15T20:28:40.688Z,51.14
2019-02-15T20:33:43.405Z,51.87
2019-02-15T20:38:46.128Z,52.54
2019-02-15T20:43:48.809Z,52.06
2019-02-15T20:49:04.331Z,52.15
2019-02-15T20:53:56.276Z,52.87
2019-02-15T20:58:58.953Z,53.27
2019-02-15T21:04:01.647Z,53.73
2019-02-15T21:09:05.932Z,53.87
2019-02-15T21:14:08.619Z,54.09
2019-02-15T21:19:11.303Z,54.54
2019-02-15T21:24:14.032Z,54.66
2019-02-15T21:29:16.748Z,55.06
2019-02-15T21:34:19.422Z,55.24
2019-02-15T21:39:22.125Z,55.36
2019-02-15T21:44:24.820Z,55.65
2019-02-15T21:49:27.527Z,55.84
2019-02-15T21:54:30.211Z,56.09
2019-02-15T21:59:33.213Z,56.41
2019-02-15T22:04:35.895Z,56.62
2019-02-15T22:09:38.603Z,56.87
2019-02-15T22:14:41.304Z,56.73
2019-02-15T22:19:43.993Z,56.95
2019-02-15T22:24:46.694Z,57.38
2019-02-15T22:29:49.394Z,57.76
2019-02-15T22:34:52.083Z,57.49
2019-02-15T22:39:54.802Z,57.26
2019-02-15T22:44:57.501Z,57.17
2019-02-15T22:50:00.229Z,56.66
2019-02-15T22:55:03.006Z,56.09
2019-02-15T23:00:13.925Z,55.66
2019-02-15T23:05:16.597Z,56.29
2019-02-15T23:10:19.283Z,56.42
2019-02-15T23:15:21.961Z,56.00
2019-02-15T23:20:24.645Z,55.63
2019-02-15T23:25:27.357Z,55.66
2019-02-15T23:30:30.047Z,56.17
2019-02-15T23:35:32.811Z,56.45
2019-02-15T23:40:35.537Z,57.19
2019-02-15T23:45:38.244Z,57.20
2019-02-15T23:50:40.937Z,57.37
2019-02-15T23:55:43.633Z,57.74
